Warning: Javascript must be enabled to use all the features on this page!


Page Loading - Please Wait...

Click to hideNews Bulletins

Peak Streamflow for the Nation

USGS 07094500 ARKANSAS RIVER AT PARKDALE, CO.

Fremont County, Colorado
Hydrologic Unit Code 11020001
Latitude  38°29'14", Longitude 105°22'23" NAD27
Drainage area 2,459  square miles
Gage datum 5,714.30 feet above NAVD88
Output formats
Table
Graph
Tab-separated file
peakfq (watstore) format
Reselect output format
Water
Year
Date Gage
Height
(feet)
Stream-
flow
(cfs)
1946 1946-07-15 8.12 4,5806
1947 1947-06-22 9.02 5,8806
1948 1948-06-12 8.33 4,8706
1949 1949-06-19 8.80 5,5306
1950 1950-06-18 6.86 3,0106
1951 1951-06-19 6.65 3,1506
1952 1952-06-08 8.94 5,7206
1953 1953-06-13 8.35 4,9706
1954 1954-07-14 6.90 3,2306
1955 1955-08-04 6.43 2,6706
1965 1965-07-13 7.136 4,8806
1966 1966-08-01 6.68 4,2906
1967 1967-05-27 5.42 2,4006
1968 1968-06-06 6.30 3,8706
1969 1969-07-29 5.94 3,1006
1970 1970-06-21 7.31 5,0206
1971 1971-06-24 5.97 3,3706
1972 1972-06-08 6.00 3,2706
1973 1973-06-12 6.60 4,1606
1974 1974-05-29 5.19 2,4006
1975 1975-07-08 6.91 5,2006
1976 1976-06-06 5.25 2,4806
1977 1977-06-10 4.33 1,3606
1978 1978-06-16 6.38 4,3306
1979 1979-06-09   5,0001,6
1980 1980-06-12 8.07 5,8406
1981 1981-06-09 4.74 2,1106
1982 1982-07-01 5.58 3,2206
1983 1983-06-26 8.06 6,3106
1984 1984-05-25 7.12 5,4306
1985 1985-06-09 9.13 5,9606
1986 1986-06-08 7.30 4,6706
1987 1987-06-10 7.84 5,9506
1988 1988-06-05 5.35 2,5506
1989 1989-07-13 5.05 2,2206
1990 1990-06-11 6.95 4,3506
1991 1991-06-13 5.63 2,9406
1992 1992-06-27 4.66 1,8406
1993 1993-06-17 6.97 4,7006
1994 1994-06-02 6.64 3,8806
1995 1995-06-18 8.82 6,8306
1996 1996-06-14 7.25 4,4406
1997 1997-06-21 7.48 4,9906
1998 1998-07-01 5.77 3,1706
1999 1999-06-24 6.51 3,5906
2000 2000-05-31 6.07 3,4706
2001 2001-06-03 5.58 2,9806
2002 2002-05-23 3.20 6516
2003 2003-05-31 6.59 3,9106
2004 2004-06-09 5.20 2,4806
2005 2005-05-28 5.32 2,6406
2006 2006-06-09 5.48 2,7806
2007 2007-06-07 5.36 2,7006
2008 2008-06-20 6.98 4,3106
2009 2009-06-27 6.38 3,6806
2010 2010-06-06 7.82 5,2806
2011 2011-07-01 6.66 4,0606
2012 2012-07-10 3.76 1,0806
2013 2013-06-12 5.61 2,9206
2014 2014-06-02 7.22 4,6606
2015 2015-06-18 8.74 6,3306
2016 2016-06-06 6.68 4,1006
2017 2017-06-20 7.12 4,6106
2018 2018-07-24 4.68 1,9906
2019 2019-06-15 8.01 5,6706
2020 2020-06-04 5.61 2,9006
2021 2021-06-10 4.83 2,1506
?
  Peak Gage-Height Qualification Codes.
?
  Peak Streamflow Qualification Codes.